createdAt,value
2019-03-05T00:04:01.728Z,958.7
2019-03-05T00:14:05.185Z,958.8
2019-03-05T00:24:08.636Z,958.6
2019-03-05T00:34:12.057Z,958.4
2019-03-05T00:44:15.499Z,958.9
2019-03-05T00:54:18.935Z,959.3
2019-03-05T01:04:22.367Z,959.1
2019-03-05T01:14:25.839Z,958.9
2019-03-05T01:24:29.237Z,958.9
2019-03-05T01:34:32.651Z,959.2
2019-03-05T01:44:36.103Z,958.4
2019-03-05T01:54:39.528Z,958.3
2019-03-05T02:04:42.954Z,958.6
2019-03-05T02:14:46.404Z,959.4
2019-03-05T02:24:49.826Z,959.4
2019-03-05T02:34:53.299Z,960.7
2019-03-05T02:44:56.861Z,960.4
2019-03-05T02:55:00.299Z,960
2019-03-05T03:05:03.782Z,959.7
2019-03-05T03:15:07.323Z,959.3
2019-03-05T03:25:10.783Z,958.9
2019-03-05T03:35:14.252Z,959
2019-03-05T03:45:17.690Z,959.3
2019-03-05T03:55:21.159Z,959.8
2019-03-05T04:05:24.627Z,959.3
2019-03-05T04:15:28.097Z,960.2
2019-03-05T04:25:31.640Z,960.4
2019-03-05T04:35:35.095Z,959.5
2019-03-05T04:45:38.519Z,959.4
2019-03-05T04:55:41.970Z,959.7
2019-03-05T05:05:45.415Z,960
2019-03-05T05:15:48.846Z,960.6
2019-03-05T05:25:52.292Z,959.5
2019-03-05T05:35:55.737Z,959.7
2019-03-05T05:45:59.209Z,959.6
2019-03-05T05:56:02.713Z,959.9
2019-03-05T06:06:06.170Z,959.7
2019-03-05T06:16:09.613Z,959.6
2019-03-05T06:26:13.061Z,959.7
2019-03-05T06:36:16.499Z,959.7
2019-03-05T06:46:19.971Z,959.4
2019-03-05T06:56:23.437Z,957.8
2019-03-05T07:06:26.899Z,959.7
2019-03-05T07:16:30.352Z,959.3
2019-03-05T07:26:34.791Z,957
2019-03-05T07:36:38.245Z,954.8
2019-03-05T07:46:41.657Z,961.5
2019-03-05T07:56:45.069Z,960.2
2019-03-05T08:06:48.521Z,959.2
2019-03-05T08:16:51.934Z,959.5
2019-03-05T08:26:55.359Z,958.2
2019-03-05T08:36:58.829Z,957.7
2019-03-05T08:47:02.283Z,958.9
2019-03-05T08:57:05.715Z,957.7
2019-03-05T09:07:09.146Z,959.9
2019-03-05T09:17:12.626Z,960
2019-03-05T09:27:16.080Z,960.8
2019-03-05T09:37:19.534Z,961.1
2019-03-05T09:47:22.972Z,962.1
2019-03-05T09:57:27.720Z,955.2
2019-03-05T10:07:31.147Z,955.3
2019-03-05T10:17:38.601Z,955.4
2019-03-05T10:27:42.041Z,955.4
2019-03-05T10:37:45.452Z,955
2019-03-05T10:47:48.878Z,961.7
2019-03-05T10:57:52.308Z,960.5
2019-03-05T11:07:55.770Z,960.4
2019-03-05T11:17:59.193Z,961.2
2019-03-05T11:28:02.615Z,961.1
2019-03-05T11:38:05.999Z,961.3
2019-03-05T11:48:09.513Z,961.4
2019-03-05T11:58:12.939Z,961.3
2019-03-05T12:08:16.417Z,961
2019-03-05T12:18:19.843Z,960.3
2019-03-05T12:28:23.307Z,958.4
2019-03-05T12:38:26.767Z,958.3
2019-03-05T12:48:40.803Z,959
2019-03-05T12:58:44.243Z,959.4
2019-03-05T13:08:47.698Z,959
2019-03-05T13:18:51.124Z,959.1
2019-03-05T13:28:54.567Z,959.3
2019-03-05T13:38:58.004Z,959.4
2019-03-05T13:49:01.460Z,958.9
2019-03-05T13:59:04.896Z,959.2
2019-03-05T14:09:09.442Z,959.2
2019-03-05T14:19:12.921Z,959
2019-03-05T14:29:16.433Z,959.5
2019-03-05T14:39:19.930Z,959.5
2019-03-05T14:49:23.514Z,959.3
2019-03-05T14:59:27.051Z,959.1
2019-03-05T15:09:30.625Z,959
2019-03-05T15:19:35.269Z,959.1
2019-03-05T15:29:38.980Z,959.4
2019-03-05T15:39:42.582Z,960
2019-03-05T15:49:46.202Z,959.9
2019-03-05T15:59:49.681Z,960.4
2019-03-05T16:09:53.165Z,960.5
2019-03-05T16:19:56.630Z,960.7
2019-03-05T16:30:00.162Z,961
2019-03-05T16:40:10.448Z,961.3
2019-03-05T16:50:13.868Z,961.4
2019-03-05T17:00:17.332Z,961.6
2019-03-05T17:10:20.794Z,961.6
2019-03-05T17:20:24.254Z,962
2019-03-05T17:30:27.660Z,962.4
2019-03-05T17:40:31.117Z,962.3
2019-03-05T17:50:34.537Z,962.2
2019-03-05T18:00:37.961Z,962
2019-03-05T18:10:41.394Z,962.4
2019-03-05T18:20:45.859Z,962.6
2019-03-05T18:30:49.315Z,962.4
2019-03-05T18:40:52.787Z,962.6
2019-03-05T18:50:56.209Z,963.1
2019-03-05T19:00:59.670Z,963
2019-03-05T19:11:03.760Z,963.3
2019-03-05T19:21:07.494Z,963.4
2019-03-05T19:31:10.926Z,963.4
2019-03-05T19:41:14.384Z,963.6
2019-03-05T19:51:17.870Z,963.8
2019-03-05T20:01:21.315Z,964
2019-03-05T20:11:24.765Z,956.7
2019-03-05T20:21:28.233Z,956.9
2019-03-05T20:31:31.695Z,957.1
2019-03-05T20:41:35.410Z,957.2
2019-03-05T20:51:38.890Z,957.1
2019-03-05T21:01:42.314Z,957.2
2019-03-05T21:11:46.599Z,957.4
2019-03-05T21:21:50.332Z,957.7
2019-03-05T21:31:53.817Z,957.6
2019-03-05T21:41:57.285Z,957.9
2019-03-05T21:52:00.774Z,958
2019-03-05T22:02:04.217Z,957.9
2019-03-05T22:12:07.685Z,958.1
2019-03-05T22:22:11.164Z,958.2
2019-03-05T22:32:14.628Z,958.3
2019-03-05T22:42:18.106Z,958.5
2019-03-05T22:52:21.578Z,958.8
2019-03-05T23:02:25.011Z,959
2019-03-05T23:12:28.473Z,958.9
2019-03-05T23:22:32.502Z,959.4
2019-03-05T23:32:36.197Z,959.1
2019-03-05T23:42:39.650Z,959.1
2019-03-05T23:52:43.081Z,959.6
